Isabella, Tennessee
Current Conditions -  °F | °C
As of 8:35 PM on Monday 22 Dec 2014 (Local Time) from KRZR Reporting Station
Overcast Overcast  
Wind Chill: 42°   Ceiling: 1400
Heat Index: 46°   Visibility: 10mi
Dew Point: 45°   Wind: 8mph
Humidity: 93%   Direction: 210°SSW
Pressure: 29.86"   Gusts: NA
Location:  35.0276°N, 84.3551°W
Report Text: KRZR 230135Z AUTO 21007KT 10SM SCT009 BKN014 OVC025 08/07 A2986 RMK
Loading
Personal Weather Stations






























Interactive Weather Map New forecast layout! Learn more

10-Day Weather Forecast

Advertisements
Track Severe Weather on mobile